createdAt,value
2022-11-27T00:01:37.544Z,1.25
2022-11-27T00:04:07.312Z,1.27
2022-11-27T00:06:35.793Z,1.28
2022-11-27T00:09:07.027Z,1.27
2022-11-27T00:11:34.920Z,1.27
2022-11-27T00:14:02.447Z,1.26
2022-11-27T00:16:30.211Z,1.25
2022-11-27T00:18:58.395Z,1.27
2022-11-27T00:21:31.535Z,1.29
2022-11-27T00:24:01.003Z,1.34
2022-11-27T00:26:35.925Z,1.37
2022-11-27T00:29:06.602Z,1.40
2022-11-27T00:31:37.028Z,1.46
2022-11-27T00:34:07.351Z,1.54
2022-11-27T00:36:35.846Z,1.58
2022-11-27T00:39:04.512Z,1.59
2022-11-27T00:41:32.466Z,1.60
2022-11-27T00:44:00.070Z,1.59
2022-11-27T00:46:30.479Z,1.56
2022-11-27T00:49:00.257Z,1.54
2022-11-27T00:51:29.257Z,1.53
2022-11-27T00:53:57.236Z,1.53
2022-11-27T00:56:27.785Z,1.54
2022-11-27T00:58:56.354Z,1.50
2022-11-27T01:01:30.361Z,1.48
2022-11-27T01:03:59.981Z,1.50
2022-11-27T01:06:28.951Z,1.53
2022-11-27T01:08:57.980Z,1.51
2022-11-27T01:11:28.921Z,1.50
2022-11-27T01:14:00.568Z,1.48
2022-11-27T01:16:31.011Z,1.48
2022-11-27T01:19:00.490Z,1.46
2022-11-27T01:21:31.146Z,1.44
2022-11-27T01:23:59.604Z,1.42
2022-11-27T01:26:27.890Z,1.40
2022-11-27T01:28:57.275Z,1.37
2022-11-27T01:31:28.470Z,1.36
2022-11-27T01:34:08.107Z,1.35
2022-11-27T01:36:36.074Z,1.36
2022-11-27T01:39:04.304Z,1.38
2022-11-27T01:41:35.129Z,1.41
2022-11-27T01:44:24.586Z,1.41
2022-11-27T01:46:59.949Z,1.39
2022-11-27T01:49:48.856Z,1.41
2022-11-27T01:52:32.315Z,1.43
2022-11-27T01:55:04.743Z,1.41
2022-11-27T01:57:39.805Z,1.42
2022-11-27T02:00:13.517Z,1.44
2022-11-27T02:02:43.290Z,1.49
2022-11-27T02:05:15.252Z,1.57
2022-11-27T02:07:43.417Z,1.66
2022-11-27T02:10:12.357Z,1.74
2022-11-27T02:13:05.554Z,1.81
2022-11-27T02:15:57.216Z,1.87
2022-11-27T02:18:43.555Z,1.89
2022-11-27T02:21:31.344Z,1.88
2022-11-27T02:24:02.224Z,1.83
2022-11-27T02:26:57.651Z,1.79
2022-11-27T02:29:31.909Z,1.74
2022-11-27T02:32:08.711Z,1.70
2022-11-27T02:35:01.439Z,1.69
2022-11-27T02:37:38.180Z,1.68
2022-11-27T02:40:17.202Z,1.69
2022-11-27T02:42:53.628Z,1.70
2022-11-27T02:45:29.135Z,1.74
2022-11-27T02:47:57.791Z,1.77
2022-11-27T02:50:28.401Z,1.79
2022-11-27T02:53:00.709Z,1.77
2022-11-27T02:55:33.143Z,1.74
2022-11-27T02:58:05.638Z,1.70
2022-11-27T03:00:35.763Z,1.68
2022-11-27T03:03:07.161Z,1.65
2022-11-27T03:05:40.479Z,1.61
2022-11-27T03:08:18.526Z,1.59
2022-11-27T03:10:57.964Z,1.58
2022-11-27T03:13:25.918Z,1.59
2022-11-27T03:16:10.425Z,1.60
2022-11-27T03:18:52.345Z,1.60
2022-11-27T03:21:26.415Z,1.63
2022-11-27T03:23:54.447Z,1.67
2022-11-27T03:26:22.041Z,1.68
2022-11-27T03:28:51.189Z,1.72
2022-11-27T03:31:19.844Z,1.75
2022-11-27T03:33:47.472Z,1.77
2022-11-27T03:36:17.561Z,1.74
2022-11-27T03:38:47.172Z,1.62
2022-11-27T03:41:25.215Z,1.49
2022-11-27T03:44:20.900Z,1.36
2022-11-27T03:47:06.876Z,1.30
2022-11-27T03:49:55.773Z,1.33
2022-11-27T03:52:40.358Z,1.41
2022-11-27T03:55:23.945Z,1.49
2022-11-27T03:58:09.931Z,1.52
2022-11-27T04:00:42.094Z,1.50
2022-11-27T04:03:12.536Z,1.52
2022-11-27T04:05:40.574Z,1.55
2022-11-27T04:08:08.111Z,1.61
2022-11-27T04:10:35.643Z,1.63
2022-11-27T04:13:03.308Z,1.64
2022-11-27T04:15:30.877Z,1.65
2022-11-27T04:17:58.427Z,1.68
2022-11-27T04:20:26.178Z,1.72
2022-11-27T04:22:53.775Z,1.73
2022-11-27T04:25:21.821Z,1.72
2022-11-27T04:27:50.400Z,1.71
2022-11-27T04:30:18.708Z,1.73
2022-11-27T04:32:46.272Z,1.76
2022-11-27T04:35:14.340Z,1.80
2022-11-27T04:37:41.902Z,1.83
2022-11-27T04:40:10.148Z,1.87
2022-11-27T04:42:37.726Z,1.90
2022-11-27T04:45:05.890Z,1.92
2022-11-27T04:47:33.426Z,1.94
2022-11-27T04:50:00.989Z,1.95
2022-11-27T04:52:28.589Z,1.94
2022-11-27T04:55:00.290Z,1.93
2022-11-27T04:57:28.296Z,1.94
2022-11-27T04:59:56.014Z,1.97
2022-11-27T05:02:23.606Z,2.01
2022-11-27T05:04:51.396Z,2.06
2022-11-27T05:07:19.115Z,2.08
2022-11-27T05:09:46.697Z,2.10
2022-11-27T05:12:14.236Z,2.11
2022-11-27T05:14:42.221Z,2.13
2022-11-27T05:17:10.113Z,2.13
2022-11-27T05:19:37.646Z,2.14
2022-11-27T05:22:05.584Z,2.12
2022-11-27T05:24:33.314Z,2.06
2022-11-27T05:27:01.326Z,2.03
2022-11-27T05:29:29.179Z,2.00
2022-11-27T05:31:56.762Z,1.99
2022-11-27T05:34:24.420Z,1.96
2022-11-27T05:36:52.011Z,1.92
2022-11-27T05:39:19.511Z,1.89
2022-11-27T05:41:47.047Z,1.86
2022-11-27T05:44:15.309Z,1.84
2022-11-27T05:46:46.455Z,1.89
2022-11-27T05:49:15.787Z,1.91
2022-11-27T05:51:50.766Z,1.93
2022-11-27T05:54:19.732Z,1.98
2022-11-27T05:56:47.317Z,2.00
2022-11-27T05:59:15.153Z,2.02
2022-11-27T06:01:43.308Z,2.03
2022-11-27T06:04:10.965Z,2.03
2022-11-27T06:06:38.497Z,2.04
2022-11-27T06:09:12.239Z,2.03
2022-11-27T06:11:41.877Z,2.03
2022-11-27T06:14:10.676Z,2.03
2022-11-27T06:16:38.479Z,2.04
2022-11-27T06:19:07.493Z,2.05
2022-11-27T06:21:35.102Z,2.10
2022-11-27T06:24:03.175Z,2.11
2022-11-27T06:26:32.743Z,2.10
2022-11-27T06:29:01.689Z,2.11
2022-11-27T06:31:32.093Z,2.10
2022-11-27T06:34:00.944Z,2.06
2022-11-27T06:36:38.065Z,2.03
2022-11-27T06:39:07.006Z,1.97
2022-11-27T06:41:34.619Z,1.93
2022-11-27T06:44:03.306Z,1.94
2022-11-27T06:46:30.925Z,1.94
2022-11-27T06:48:59.235Z,1.95
2022-11-27T06:51:30.435Z,1.95
2022-11-27T06:54:00.572Z,1.98
2022-11-27T06:56:30.679Z,2.03
2022-11-27T06:59:00.528Z,2.10
2022-11-27T07:01:30.375Z,2.17
2022-11-27T07:03:58.419Z,2.20
2022-11-27T07:06:27.164Z,2.23
2022-11-27T07:08:55.625Z,2.24
2022-11-27T07:11:26.969Z,2.26
2022-11-27T07:13:56.445Z,2.32
2022-11-27T07:16:25.396Z,2.37
2022-11-27T07:18:56.040Z,2.37
2022-11-27T07:21:24.757Z,2.34
2022-11-27T07:23:52.348Z,2.36
2022-11-27T07:26:25.988Z,2.37
2022-11-27T07:28:53.934Z,2.39
2022-11-27T07:31:28.342Z,2.36
2022-11-27T07:33:57.123Z,2.37
2022-11-27T07:36:27.945Z,2.41
2022-11-27T07:38:56.156Z,2.45
2022-11-27T07:41:26.899Z,2.50
2022-11-27T07:43:56.838Z,2.51
2022-11-27T07:46:25.375Z,2.56
2022-11-27T07:48:53.046Z,2.56
2022-11-27T07:51:21.494Z,2.54
2022-11-27T07:53:51.804Z,2.54
2022-11-27T07:56:20.354Z,2.56
2022-11-27T07:58:48.138Z,2.59
2022-11-27T08:01:18.422Z,2.59
2022-11-27T08:03:46.177Z,2.60
2022-11-27T08:06:25.086Z,2.60
2022-11-27T08:08:55.846Z,2.61
2022-11-27T08:11:29.888Z,2.64
2022-11-27T08:14:00.316Z,2.68
2022-11-27T08:16:29.229Z,2.68
2022-11-27T08:18:57.194Z,2.72
2022-11-27T08:21:25.506Z,2.79
2022-11-27T08:23:53.269Z,2.84
2022-11-27T08:26:21.159Z,2.88
2022-11-27T08:28:51.857Z,2.90
2022-11-27T08:31:20.769Z,2.88
2022-11-27T08:33:48.525Z,2.87
2022-11-27T08:36:18.244Z,2.85
2022-11-27T08:38:46.848Z,2.84
2022-11-27T08:41:14.484Z,2.82
2022-11-27T08:43:43.441Z,2.86
2022-11-27T08:46:11.830Z,2.86
2022-11-27T08:48:40.176Z,2.86
2022-11-27T08:51:11.440Z,2.89
2022-11-27T08:53:39.597Z,2.93
2022-11-27T08:56:13.781Z,2.95
2022-11-27T08:58:41.472Z,2.95
2022-11-27T09:01:22.857Z,2.97
2022-11-27T09:03:52.785Z,3.00
2022-11-27T09:06:24.367Z,3.01
2022-11-27T09:08:51.967Z,3.01
2022-11-27T09:11:20.800Z,2.97
2022-11-27T09:13:48.931Z,2.96
2022-11-27T09:16:18.169Z,2.99
2022-11-27T09:18:47.539Z,3.02
2022-11-27T09:21:17.531Z,3.04
2022-11-27T09:23:46.016Z,3.06
2022-11-27T09:26:16.595Z,3.09
2022-11-27T09:28:44.988Z,3.12
2022-11-27T09:31:15.175Z,3.12
2022-11-27T09:33:44.332Z,3.14
2022-11-27T09:36:15.478Z,3.14
2022-11-27T09:38:44.152Z,3.08
2022-11-27T09:41:11.789Z,3.00
2022-11-27T09:43:50.751Z,2.97
2022-11-27T09:46:29.284Z,2.96
2022-11-27T09:49:00.535Z,2.98
2022-11-27T09:51:47.662Z,2.99
2022-11-27T09:54:42.099Z,3.01
2022-11-27T09:57:16.734Z,3.05
2022-11-27T09:59:51.466Z,3.08
2022-11-27T10:02:31.381Z,3.14
2022-11-27T10:05:16.997Z,3.20
2022-11-27T10:08:05.997Z,3.26
2022-11-27T10:10:40.653Z,3.30
2022-11-27T10:13:40.235Z,3.33
2022-11-27T10:16:10.460Z,3.31
2022-11-27T10:18:55.780Z,3.30
2022-11-27T10:21:39.329Z,3.27
2022-11-27T10:24:39.151Z,3.28
2022-11-27T10:27:36.481Z,3.37
2022-11-27T10:30:18.871Z,3.43
2022-11-27T10:32:56.183Z,3.45
2022-11-27T10:35:30.305Z,3.40
2022-11-27T10:38:11.331Z,3.26
2022-11-27T10:40:45.154Z,3.09
2022-11-27T10:43:18.644Z,2.99
2022-11-27T10:45:59.401Z,2.97
2022-11-27T10:48:29.364Z,2.92
2022-11-27T10:50:57.182Z,2.92
2022-11-27T10:53:42.828Z,2.96
2022-11-27T10:56:17.058Z,3.04
2022-11-27T10:59:08.754Z,3.15
2022-11-27T11:01:49.139Z,3.25
2022-11-27T11:04:37.545Z,3.32
2022-11-27T11:07:26.933Z,3.41
2022-11-27T11:09:56.401Z,3.38
2022-11-27T11:12:24.454Z,3.31
2022-11-27T11:15:00.628Z,3.25
2022-11-27T11:17:34.521Z,3.22
2022-11-27T11:20:15.034Z,3.24
2022-11-27T11:22:47.465Z,3.32
2022-11-27T11:25:17.934Z,3.38
2022-11-27T11:27:47.230Z,3.40
2022-11-27T11:30:30.727Z,3.41
2022-11-27T11:33:02.184Z,3.41
2022-11-27T11:35:34.633Z,3.40
2022-11-27T11:38:16.215Z,3.38
2022-11-27T11:41:00.675Z,3.38
2022-11-27T11:43:32.028Z,3.34
2022-11-27T11:46:17.523Z,3.32
2022-11-27T11:49:16.976Z,3.35
2022-11-27T11:52:01.997Z,3.35
2022-11-27T11:54:45.530Z,3.41
2022-11-27T11:57:37.932Z,3.52
2022-11-27T12:00:11.821Z,3.62
2022-11-27T12:02:53.671Z,3.66
2022-11-27T12:05:38.421Z,3.65
2022-11-27T12:08:32.174Z,3.65
2022-11-27T12:11:16.151Z,3.64
2022-11-27T12:13:59.698Z,3.61
2022-11-27T12:16:43.536Z,3.64
2022-11-27T12:19:29.935Z,3.68
2022-11-27T12:22:06.914Z,3.69
2022-11-27T12:24:51.426Z,3.73
2022-11-27T12:27:54.130Z,3.77
2022-11-27T12:30:24.215Z,3.81
2022-11-27T12:33:26.755Z,3.85
2022-11-27T12:36:15.993Z,3.83
2022-11-27T12:39:14.476Z,3.83
2022-11-27T12:42:00.504Z,3.82
2022-11-27T12:44:54.898Z,3.81
2022-11-27T12:47:40.916Z,3.81
2022-11-27T12:50:25.862Z,3.80
2022-11-27T12:53:11.440Z,3.82
2022-11-27T12:55:43.201Z,3.86
2022-11-27T12:58:26.959Z,3.89
2022-11-27T13:01:12.337Z,3.95
2022-11-27T13:04:13.494Z,3.98
2022-11-27T13:07:16.879Z,4.00
2022-11-27T13:09:56.794Z,4.03
2022-11-27T13:12:29.981Z,4.06
2022-11-27T13:15:06.466Z,4.08
2022-11-27T13:17:39.249Z,4.10
2022-11-27T13:20:17.794Z,4.09
2022-11-27T13:22:47.364Z,4.07
2022-11-27T13:25:15.176Z,4.08
2022-11-27T13:27:51.300Z,4.08
2022-11-27T13:30:25.662Z,4.07
2022-11-27T13:33:01.599Z,4.08
2022-11-27T13:35:45.138Z,4.12
2022-11-27T13:38:28.945Z,4.14
2022-11-27T13:40:57.487Z,4.14
2022-11-27T13:43:43.397Z,4.16
2022-11-27T13:46:28.840Z,4.22
2022-11-27T13:49:03.078Z,4.20
2022-11-27T13:51:37.015Z,4.21
2022-11-27T13:54:08.981Z,4.22
2022-11-27T13:56:36.884Z,4.21
2022-11-27T13:59:22.970Z,4.20
2022-11-27T14:02:01.398Z,4.14
2022-11-27T14:04:33.149Z,4.06
2022-11-27T14:07:06.906Z,3.99
2022-11-27T14:09:42.641Z,3.94
2022-11-27T14:12:18.310Z,3.92
2022-11-27T14:14:59.421Z,3.87
2022-11-27T14:17:34.838Z,3.78
2022-11-27T14:20:18.825Z,3.76
2022-11-27T14:23:13.207Z,3.73
2022-11-27T14:25:41.490Z,3.72
2022-11-27T14:28:26.980Z,3.70
2022-11-27T14:30:57.894Z,3.65
2022-11-27T14:33:31.235Z,3.61
2022-11-27T14:36:08.159Z,3.60
2022-11-27T14:38:36.925Z,3.54
2022-11-27T14:41:09.444Z,3.51
2022-11-27T14:43:37.393Z,3.51
2022-11-27T14:46:06.181Z,3.48
2022-11-27T14:48:47.677Z,3.47
2022-11-27T14:51:18.465Z,3.46
2022-11-27T14:53:48.644Z,3.45
2022-11-27T14:56:17.217Z,3.44
2022-11-27T14:58:52.548Z,3.46
2022-11-27T15:01:27.818Z,3.49
2022-11-27T15:03:57.702Z,3.46
2022-11-27T15:06:29.479Z,3.45
2022-11-27T15:09:29.792Z,3.44
2022-11-27T15:11:56.174Z,3.40
2022-11-27T15:14:27.680Z,3.36
2022-11-27T15:16:58.065Z,3.38
2022-11-27T15:19:32.980Z,3.38
2022-11-27T15:22:01.329Z,3.37
2022-11-27T15:24:38.799Z,3.39
2022-11-27T15:27:22.512Z,3.44
2022-11-27T15:29:50.138Z,3.47
2022-11-27T15:32:24.588Z,3.49
2022-11-27T15:34:53.466Z,3.49
2022-11-27T15:37:34.417Z,3.48
2022-11-27T15:40:02.549Z,3.46
2022-11-27T15:42:30.556Z,3.40
2022-11-27T15:44:58.355Z,3.35
2022-11-27T15:47:31.788Z,3.34
2022-11-27T15:50:00.147Z,3.31
2022-11-27T15:52:27.942Z,3.30
2022-11-27T15:54:56.462Z,3.24
2022-11-27T15:57:25.082Z,3.15
2022-11-27T15:59:52.640Z,3.13
2022-11-27T16:02:20.505Z,3.11
2022-11-27T16:04:50.015Z,3.11
2022-11-27T16:07:17.613Z,3.08
2022-11-27T16:09:46.760Z,3.05
2022-11-27T16:12:14.330Z,3.01
2022-11-27T16:14:42.237Z,2.99
2022-11-27T16:17:10.078Z,3.00
2022-11-27T16:19:37.620Z,3.03
2022-11-27T16:22:05.169Z,3.05
2022-11-27T16:24:32.954Z,3.09
2022-11-27T16:27:00.569Z,3.15
2022-11-27T16:29:28.126Z,3.20
2022-11-27T16:31:56.831Z,3.27
2022-11-27T16:34:24.468Z,3.30
2022-11-27T16:36:52.167Z,3.32
2022-11-27T16:39:19.830Z,3.34
2022-11-27T16:41:47.335Z,3.35
2022-11-27T16:44:15.487Z,3.36
2022-11-27T16:46:44.532Z,3.37
2022-11-27T16:49:13.270Z,3.37
2022-11-27T16:51:42.266Z,3.44
2022-11-27T16:54:13.526Z,3.46
2022-11-27T16:56:44.048Z,3.47
2022-11-27T16:59:15.605Z,3.50
2022-11-27T17:01:45.846Z,3.52
2022-11-27T17:04:18.187Z,3.54
2022-11-27T17:06:47.290Z,3.58
2022-11-27T17:09:15.773Z,3.60
2022-11-27T17:11:48.321Z,3.63
2022-11-27T17:14:18.372Z,3.63
2022-11-27T17:16:46.033Z,3.64
2022-11-27T17:19:15.818Z,3.65
2022-11-27T17:21:45.749Z,3.65
2022-11-27T17:24:16.505Z,3.67
2022-11-27T17:26:48.204Z,3.69
2022-11-27T17:29:18.899Z,3.72
2022-11-27T17:31:46.798Z,3.73
2022-11-27T17:34:16.660Z,3.78
2022-11-27T17:36:45.310Z,3.83
2022-11-27T17:39:15.272Z,3.82
2022-11-27T17:41:46.725Z,3.84
2022-11-27T17:44:14.574Z,3.87
2022-11-27T17:46:47.933Z,3.85
2022-11-27T17:49:16.795Z,3.81
2022-11-27T17:51:45.691Z,3.79
2022-11-27T17:54:14.978Z,3.80
2022-11-27T17:56:42.955Z,3.82
2022-11-27T17:59:10.711Z,3.81
2022-11-27T18:01:39.534Z,3.82
2022-11-27T18:04:10.230Z,3.78
2022-11-27T18:06:38.641Z,3.76
2022-11-27T18:09:06.206Z,3.79
2022-11-27T18:11:33.987Z,3.82
2022-11-27T18:14:03.043Z,3.81
2022-11-27T18:16:34.499Z,3.84
2022-11-27T18:19:06.661Z,3.83
2022-11-27T18:21:35.459Z,3.83
2022-11-27T18:27:08.030Z,3.90
2022-11-27T18:29:39.212Z,3.89
2022-11-27T18:32:07.628Z,3.86
2022-11-27T18:34:35.426Z,3.85
2022-11-27T18:37:03.796Z,3.82
2022-11-27T18:39:32.003Z,3.81
2022-11-27T18:41:59.805Z,3.82
2022-11-27T18:44:27.527Z,3.82
2022-11-27T18:46:55.361Z,3.83
2022-11-27T18:49:24.598Z,3.87
2022-11-27T18:51:54.125Z,3.88
2022-11-27T18:54:21.846Z,3.89
2022-11-27T18:56:49.916Z,3.90
2022-11-27T18:59:17.813Z,3.92
2022-11-27T19:01:45.839Z,3.95
2022-11-27T19:04:15.097Z,3.91
2022-11-27T19:06:43.536Z,3.87
2022-11-27T19:09:13.560Z,3.85
2022-11-27T19:11:41.726Z,3.87
2022-11-27T19:14:09.927Z,3.89
2022-11-27T19:16:46.161Z,3.87
2022-11-27T19:22:07.694Z,3.75
2022-11-27T19:24:36.510Z,3.69
2022-11-27T19:27:04.084Z,3.65
2022-11-27T19:29:31.618Z,3.60
2022-11-27T19:32:01.107Z,3.54
2022-11-27T19:34:29.130Z,3.56
2022-11-27T19:36:58.367Z,3.57
2022-11-27T19:39:27.265Z,3.61
2022-11-27T19:41:57.654Z,3.59
2022-11-27T19:44:25.717Z,3.60
2022-11-27T19:46:53.799Z,3.63
2022-11-27T19:49:22.483Z,3.74
2022-11-27T19:51:50.064Z,3.81
2022-11-27T19:54:20.417Z,3.82
2022-11-27T19:56:47.944Z,3.84
2022-11-27T19:59:15.556Z,3.86
2022-11-27T20:01:43.188Z,3.84
2022-11-27T20:04:11.673Z,3.85
2022-11-27T20:06:40.940Z,3.82
2022-11-27T20:09:08.975Z,3.82
2022-11-27T20:11:37.073Z,3.79
2022-11-27T20:14:06.386Z,3.79
2022-11-27T20:16:35.849Z,3.76
2022-11-27T20:19:05.957Z,3.74
2022-11-27T20:21:36.664Z,3.74
2022-11-27T20:24:04.978Z,3.69
2022-11-27T20:26:37.180Z,3.63
2022-11-27T20:29:07.873Z,3.59
2022-11-27T20:31:37.796Z,3.56
2022-11-27T20:34:07.013Z,3.55
2022-11-27T20:36:39.228Z,3.51
2022-11-27T20:39:07.394Z,3.53
2022-11-27T20:41:34.932Z,3.55
2022-11-27T20:44:04.837Z,3.54
2022-11-27T20:46:33.958Z,3.54
2022-11-27T20:49:02.864Z,3.55
2022-11-27T20:51:33.994Z,3.55
2022-11-27T20:54:10.438Z,3.52
2022-11-27T20:56:38.428Z,3.46
2022-11-27T20:59:07.737Z,3.43
2022-11-27T21:01:36.844Z,3.38
2022-11-27T21:04:10.412Z,3.35
2022-11-27T21:06:43.497Z,3.31
2022-11-27T21:09:13.837Z,3.28
2022-11-27T21:11:42.784Z,3.28
2022-11-27T21:14:13.492Z,3.30
2022-11-27T21:16:45.928Z,3.28
2022-11-27T21:19:29.516Z,3.26
2022-11-27T21:21:57.360Z,3.28
2022-11-27T21:24:27.793Z,3.29
2022-11-27T21:26:56.495Z,3.35
2022-11-27T21:29:27.304Z,3.34
2022-11-27T21:31:56.823Z,3.29
2022-11-27T21:34:25.304Z,3.25
2022-11-27T21:36:53.571Z,3.21
2022-11-27T21:39:21.644Z,3.18
2022-11-27T21:41:52.248Z,3.16
2022-11-27T21:44:21.585Z,3.13
2022-11-27T21:46:51.079Z,3.08
2022-11-27T21:49:20.286Z,3.04
2022-11-27T21:51:53.095Z,3.04
2022-11-27T21:54:21.971Z,3.05
2022-11-27T21:56:53.418Z,3.02
2022-11-27T21:59:21.298Z,3.00
2022-11-27T22:01:49.171Z,3.03
2022-11-27T22:04:16.902Z,3.09
2022-11-27T22:06:45.395Z,3.14
2022-11-27T22:09:15.758Z,3.23
2022-11-27T22:11:45.961Z,3.24
2022-11-27T22:14:15.785Z,3.23
2022-11-27T22:16:46.379Z,3.17
2022-11-27T22:19:16.145Z,3.10
2022-11-27T22:21:44.607Z,3.03
2022-11-27T22:24:18.417Z,2.97
2022-11-27T22:26:47.669Z,2.93
2022-11-27T22:29:16.296Z,2.92
2022-11-27T22:31:44.684Z,2.94
2022-11-27T22:34:12.266Z,2.94
2022-11-27T22:36:40.499Z,2.96
2022-11-27T22:39:08.970Z,2.96
2022-11-27T22:41:38.355Z,2.95
2022-11-27T22:44:24.200Z,3.04
2022-11-27T22:46:51.769Z,3.11
2022-11-27T22:49:19.521Z,3.17
2022-11-27T22:51:47.767Z,3.22
2022-11-27T22:54:19.537Z,3.24
2022-11-27T22:56:47.350Z,3.23
2022-11-27T22:59:33.603Z,3.23
2022-11-27T23:02:05.789Z,3.24
2022-11-27T23:04:34.776Z,3.27
2022-11-27T23:07:03.963Z,3.24
2022-11-27T23:09:32.728Z,3.20
2022-11-27T23:12:00.390Z,3.19
2022-11-27T23:14:28.009Z,3.19
2022-11-27T23:16:55.821Z,3.25
2022-11-27T23:19:23.511Z,3.28
2022-11-27T23:21:51.128Z,3.28
2022-11-27T23:24:18.695Z,3.32
2022-11-27T23:26:46.349Z,3.38
2022-11-27T23:29:14.277Z,3.40
2022-11-27T23:31:41.980Z,3.34
2022-11-27T23:34:13.477Z,3.33
2022-11-27T23:36:41.523Z,3.34
2022-11-27T23:39:12.363Z,3.33
2022-11-27T23:41:40.472Z,3.33
2022-11-27T23:44:08.254Z,3.34
2022-11-27T23:46:35.825Z,3.36
2022-11-27T23:49:03.412Z,3.36
2022-11-27T23:51:33.156Z,3.42
2022-11-27T23:54:01.524Z,3.46
2022-11-27T23:56:31.438Z,3.48
2022-11-27T23:58:59.720Z,3.50
